createdAt,value
2022-07-27T00:00:55.818Z,17.38
2022-07-27T00:01:55.796Z,17.43
2022-07-27T00:02:55.821Z,17.40
2022-07-27T00:03:55.876Z,17.44
2022-07-27T00:04:55.893Z,17.37
2022-07-27T00:05:55.903Z,17.36
2022-07-27T00:06:55.936Z,17.37
2022-07-27T00:07:55.959Z,17.26
2022-07-27T00:08:55.984Z,17.40
2022-07-27T00:09:56.012Z,17.41
2022-07-27T00:10:56.036Z,17.40
2022-07-27T00:11:56.062Z,17.33
2022-07-27T00:12:56.095Z,17.33
2022-07-27T00:13:56.114Z,17.31
2022-07-27T00:14:56.143Z,17.26
2022-07-27T00:15:56.229Z,17.37
2022-07-27T00:16:56.193Z,17.37
2022-07-27T00:17:56.225Z,17.31
2022-07-27T00:18:56.249Z,17.30
2022-07-27T00:19:56.275Z,17.34
2022-07-27T00:20:56.305Z,17.33
2022-07-27T00:21:56.333Z,17.33
2022-07-27T00:22:56.365Z,17.30
2022-07-27T00:23:56.382Z,17.28
2022-07-27T00:24:56.406Z,17.25
2022-07-27T00:25:56.441Z,17.23
2022-07-27T00:26:56.459Z,17.16
2022-07-27T00:27:56.487Z,17.16
2022-07-27T00:28:56.515Z,17.21
2022-07-27T00:29:56.542Z,17.08
2022-07-27T00:30:56.604Z,17.14
2022-07-27T00:31:56.631Z,17.07
2022-07-27T00:32:56.621Z,17.01
2022-07-27T00:33:56.644Z,16.89
2022-07-27T00:34:56.670Z,17.01
2022-07-27T00:35:56.701Z,16.94
2022-07-27T00:36:56.726Z,16.96
2022-07-27T00:37:56.751Z,16.85
2022-07-27T00:38:56.778Z,16.83
2022-07-27T00:39:56.804Z,16.89
2022-07-27T00:40:56.831Z,16.91
2022-07-27T00:41:56.856Z,16.83
2022-07-27T00:42:56.883Z,16.82
2022-07-27T00:43:56.911Z,16.79
2022-07-27T00:44:56.933Z,16.64
2022-07-27T00:45:56.960Z,16.76
2022-07-27T00:46:57.040Z,16.67
2022-07-27T00:47:57.016Z,16.61
2022-07-27T00:48:57.088Z,16.64
2022-07-27T00:49:57.066Z,16.66
2022-07-27T00:50:57.093Z,16.61
2022-07-27T00:51:57.118Z,16.58
2022-07-27T00:52:57.149Z,16.57
2022-07-27T00:53:57.170Z,16.50
2022-07-27T00:54:57.196Z,16.50
2022-07-27T00:55:57.224Z,16.64
2022-07-27T00:56:57.251Z,16.52
2022-07-27T00:57:58.783Z,16.52
2022-07-27T00:58:57.302Z,16.49
2022-07-27T00:59:57.328Z,16.60
2022-07-27T01:00:57.387Z,16.53
2022-07-27T01:01:57.488Z,16.53
2022-07-27T01:02:57.829Z,16.52
2022-07-27T01:03:57.435Z,16.56
2022-07-27T01:04:57.460Z,16.48
2022-07-27T01:05:57.485Z,16.50
2022-07-27T01:06:57.507Z,16.50
2022-07-27T01:07:57.537Z,16.45
2022-07-27T01:08:57.564Z,16.50
2022-07-27T01:09:57.592Z,16.50
2022-07-27T01:10:57.621Z,16.48
2022-07-27T01:11:57.642Z,16.41
2022-07-27T01:12:57.667Z,16.41
2022-07-27T01:13:57.698Z,16.46
2022-07-27T01:14:57.723Z,16.41
2022-07-27T01:15:57.806Z,16.41
2022-07-27T01:16:57.771Z,16.52
2022-07-27T01:17:57.796Z,16.45
2022-07-27T01:18:57.835Z,16.34
2022-07-27T01:19:57.851Z,16.48
2022-07-27T01:20:57.876Z,16.41
2022-07-27T01:21:57.904Z,16.43
2022-07-27T01:22:57.930Z,16.45
2022-07-27T01:23:57.954Z,16.31
2022-07-27T01:24:57.983Z,16.30
2022-07-27T01:25:58.010Z,16.39
2022-07-27T01:26:58.034Z,16.34
2022-07-27T01:27:58.060Z,16.31
2022-07-27T01:28:58.086Z,16.35
2022-07-27T01:29:58.113Z,16.23
2022-07-27T01:30:58.198Z,16.30
2022-07-27T01:31:58.162Z,16.15
2022-07-27T01:32:58.189Z,16.21
2022-07-27T01:33:58.215Z,16.14
2022-07-27T01:34:58.242Z,16.21
2022-07-27T01:35:58.269Z,16.11
2022-07-27T01:36:58.296Z,16.04
2022-07-27T01:37:58.321Z,16.09
2022-07-27T01:38:58.345Z,15.97
2022-07-27T01:39:58.370Z,16.00
2022-07-27T01:40:58.401Z,16.00
2022-07-27T01:41:58.422Z,15.84
2022-07-27T01:42:58.453Z,15.86
2022-07-27T01:43:58.472Z,15.82
2022-07-27T01:44:58.494Z,15.78
2022-07-27T01:45:58.566Z,15.82
2022-07-27T01:46:58.549Z,15.78
2022-07-27T01:47:58.577Z,15.86
2022-07-27T01:48:58.663Z,15.86
2022-07-27T01:49:58.629Z,15.82
2022-07-27T01:50:58.653Z,15.78
2022-07-27T01:51:58.677Z,15.78
2022-07-27T01:52:58.707Z,15.76
2022-07-27T01:53:58.732Z,15.68
2022-07-27T01:54:58.754Z,15.72
2022-07-27T01:55:58.782Z,15.65
2022-07-27T01:56:58.817Z,15.68
2022-07-27T01:57:58.833Z,15.72
2022-07-27T01:58:58.856Z,15.68
2022-07-27T01:59:58.884Z,15.56
2022-07-27T02:00:58.910Z,15.57
2022-07-27T02:01:59.010Z,15.64
2022-07-27T02:02:58.964Z,15.62
2022-07-27T02:03:58.983Z,15.56
2022-07-27T02:04:59.095Z,15.53
2022-07-27T02:05:59.034Z,15.47
2022-07-27T02:06:59.057Z,15.44
2022-07-27T02:07:59.086Z,15.47
2022-07-27T02:08:59.110Z,15.47
2022-07-27T02:09:59.134Z,15.36
2022-07-27T02:10:59.159Z,15.41
2022-07-27T02:11:59.188Z,15.41
2022-07-27T02:12:59.222Z,15.36
2022-07-27T02:13:59.236Z,15.41
2022-07-27T02:14:59.264Z,15.43
2022-07-27T02:15:59.358Z,15.41
2022-07-27T02:16:59.314Z,15.38
2022-07-27T02:17:59.339Z,15.35
2022-07-27T02:18:59.362Z,15.32
2022-07-27T02:19:59.390Z,15.32
2022-07-27T02:20:59.415Z,15.28
2022-07-27T02:21:59.442Z,15.21
2022-07-27T02:22:59.463Z,15.29
2022-07-27T02:23:59.488Z,15.29
2022-07-27T02:24:59.513Z,15.29
2022-07-27T02:25:59.540Z,15.27
2022-07-27T02:26:59.574Z,15.20
2022-07-27T02:27:59.592Z,15.20
2022-07-27T02:28:59.621Z,15.17
2022-07-27T02:29:59.644Z,15.11
2022-07-27T02:30:59.667Z,15.11
2022-07-27T02:31:59.688Z,15.09
2022-07-27T02:32:59.852Z,15.03
2022-07-27T02:33:59.744Z,15.09
2022-07-27T02:34:59.767Z,15.10
2022-07-27T02:35:59.793Z,15.10
2022-07-27T02:36:59.813Z,15.03
2022-07-27T02:37:59.843Z,15.06
2022-07-27T02:38:59.864Z,14.94
2022-07-27T02:39:59.894Z,14.98
2022-07-27T02:40:59.915Z,15.01
2022-07-27T02:41:59.942Z,14.96
2022-07-27T02:42:59.969Z,14.94
2022-07-27T02:44:00.002Z,14.96
2022-07-27T02:45:00.017Z,14.95
2022-07-27T02:46:00.092Z,14.99
2022-07-27T02:47:00.085Z,14.99
2022-07-27T02:48:00.104Z,14.92
2022-07-27T02:49:00.194Z,14.94
2022-07-27T02:50:00.188Z,14.91
2022-07-27T02:51:00.166Z,14.96
2022-07-27T02:52:00.195Z,14.98
2022-07-27T02:53:00.218Z,15.01
2022-07-27T02:54:00.248Z,14.95
2022-07-27T02:55:00.271Z,14.98
2022-07-27T02:56:00.294Z,14.95
2022-07-27T02:57:00.320Z,14.89
2022-07-27T02:58:00.344Z,14.84
2022-07-27T02:59:00.371Z,14.95
2022-07-27T03:00:00.416Z,14.94
2022-07-27T03:01:00.422Z,14.94
2022-07-27T03:02:00.509Z,14.94
2022-07-27T03:03:00.468Z,14.81
2022-07-27T03:04:00.543Z,14.91
2022-07-27T03:05:00.516Z,14.83
2022-07-27T03:06:00.546Z,14.91
2022-07-27T03:07:00.574Z,14.92
2022-07-27T03:08:00.594Z,14.89
2022-07-27T03:09:00.620Z,14.95
2022-07-27T03:10:00.651Z,14.84
2022-07-27T03:11:00.675Z,14.96
2022-07-27T03:12:00.704Z,15.01
2022-07-27T03:13:00.726Z,15.02
2022-07-27T03:14:00.749Z,15.02
2022-07-27T03:15:00.771Z,15.07
2022-07-27T03:16:00.845Z,15.14
2022-07-27T03:17:00.821Z,15.11
2022-07-27T03:18:00.849Z,15.17
2022-07-27T03:19:00.871Z,15.16
2022-07-27T03:20:00.906Z,15.25
2022-07-27T03:21:00.926Z,15.13
2022-07-27T03:22:00.950Z,15.28
2022-07-27T03:23:00.986Z,15.25
2022-07-27T03:24:01.003Z,15.27
2022-07-27T03:25:01.027Z,15.20
2022-07-27T03:26:01.051Z,15.20
2022-07-27T03:27:01.076Z,15.27
2022-07-27T03:28:04.212Z,15.36
2022-07-27T03:29:01.129Z,15.31
2022-07-27T03:30:01.151Z,15.34
2022-07-27T03:31:01.337Z,15.34
2022-07-27T03:32:01.217Z,15.34
2022-07-27T03:33:01.231Z,15.35
2022-07-27T03:34:02.194Z,15.32
2022-07-27T03:35:01.278Z,15.34
2022-07-27T03:36:01.309Z,15.23
2022-07-27T03:37:01.333Z,15.34
2022-07-27T03:38:01.359Z,15.29
2022-07-27T03:39:05.902Z,15.31
2022-07-27T03:40:01.407Z,15.35
2022-07-27T03:41:01.432Z,15.32
2022-07-27T03:42:01.458Z,15.36
2022-07-27T03:43:01.483Z,15.39
2022-07-27T03:44:01.508Z,15.35
2022-07-27T03:45:01.543Z,15.36
2022-07-27T03:46:01.614Z,15.20
2022-07-27T03:47:01.582Z,15.21
2022-07-27T03:48:01.610Z,15.25
2022-07-27T03:49:01.710Z,15.19
2022-07-27T03:50:01.662Z,15.25
2022-07-27T03:51:01.686Z,15.13
2022-07-27T03:52:01.718Z,15.11
2022-07-27T03:53:01.736Z,15.14
2022-07-27T03:54:01.763Z,15.14
2022-07-27T03:55:01.803Z,15.17
2022-07-27T03:56:01.812Z,15.13
2022-07-27T03:57:01.843Z,15.11
2022-07-27T03:58:01.863Z,15.07
2022-07-27T03:59:01.887Z,15.10
2022-07-27T04:00:01.913Z,15.14
2022-07-27T04:01:02.009Z,15.07
2022-07-27T04:02:02.008Z,15.07
2022-07-27T04:03:01.995Z,15.09
2022-07-27T04:04:02.021Z,15.10
2022-07-27T04:05:02.050Z,15.07
2022-07-27T04:06:02.067Z,15.11
2022-07-27T04:07:02.092Z,15.03
2022-07-27T04:08:02.121Z,15.09
2022-07-27T04:09:08.643Z,15.09
2022-07-27T04:10:02.223Z,15.02
2022-07-27T04:11:02.194Z,14.96
2022-07-27T04:12:02.211Z,14.94
2022-07-27T04:13:02.242Z,14.96
2022-07-27T04:14:02.267Z,14.94
2022-07-27T04:15:02.292Z,14.98
2022-07-27T04:16:02.318Z,15.06
2022-07-27T04:17:02.449Z,14.94
2022-07-27T04:18:02.366Z,14.99
2022-07-27T04:19:02.388Z,15.03
2022-07-27T04:20:02.420Z,14.95
2022-07-27T04:21:02.447Z,15.06
2022-07-27T04:22:02.467Z,15.07
2022-07-27T04:23:02.493Z,15.10
2022-07-27T04:24:02.514Z,15.09
2022-07-27T04:25:02.541Z,15.19
2022-07-27T04:26:02.569Z,15.14
2022-07-27T04:27:02.600Z,15.21
2022-07-27T04:28:02.625Z,15.21
2022-07-27T04:29:02.644Z,15.29
2022-07-27T04:30:04.535Z,15.28
2022-07-27T04:31:02.754Z,15.38
2022-07-27T04:32:02.721Z,15.47
2022-07-27T04:33:02.746Z,15.35
2022-07-27T04:34:02.772Z,15.39
2022-07-27T04:35:02.813Z,15.36
2022-07-27T04:36:02.822Z,15.39
2022-07-27T04:37:02.848Z,15.35
2022-07-27T04:38:02.871Z,15.38
2022-07-27T04:39:02.895Z,15.46
2022-07-27T04:40:02.955Z,15.39
2022-07-27T04:41:02.946Z,15.46
2022-07-27T04:42:02.974Z,15.39
2022-07-27T04:43:03.009Z,15.39
2022-07-27T04:44:03.026Z,15.49
2022-07-27T04:45:03.053Z,15.47
2022-07-27T04:46:03.133Z,15.50
2022-07-27T04:47:03.097Z,15.65
2022-07-27T04:48:03.122Z,15.90
2022-07-27T04:49:03.228Z,16.25
2022-07-27T04:50:03.181Z,16.64
2022-07-27T04:51:03.201Z,17.04
2022-07-27T04:52:03.227Z,17.40
2022-07-27T04:53:03.254Z,17.75
2022-07-27T04:54:03.280Z,18.12
2022-07-27T04:55:03.307Z,18.47
2022-07-27T04:56:03.333Z,18.78
2022-07-27T04:57:03.359Z,18.94
2022-07-27T04:58:10.622Z,19.36
2022-07-27T05:00:07.885Z,19.87
2022-07-27T05:01:07.515Z,19.94
2022-07-27T05:03:11.923Z,20.31
2022-07-27T05:04:11.516Z,20.47
2022-07-27T05:06:04.420Z,20.36
2022-07-27T05:07:04.433Z,20.29
2022-07-27T05:09:09.107Z,20.72
2022-07-27T05:10:08.483Z,20.89
2022-07-27T05:12:12.507Z,21.44
2022-07-27T05:13:12.523Z,21.56
2022-07-27T05:15:17.033Z,21.49
2022-07-27T05:16:16.767Z,21.50
2022-07-27T05:18:20.593Z,22.00
2022-07-27T05:19:20.613Z,22.14
2022-07-27T05:21:25.120Z,21.61
2022-07-27T05:22:24.666Z,21.37
2022-07-27T05:24:28.689Z,20.92
2022-07-27T05:25:28.712Z,20.74
2022-07-27T05:27:33.709Z,20.43
2022-07-27T05:28:32.764Z,20.62
2022-07-27T05:30:36.791Z,20.89
2022-07-27T05:31:36.858Z,20.89
2022-07-27T05:33:45.123Z,21.22
2022-07-27T05:34:40.855Z,21.21
2022-07-27T05:36:33.816Z,21.01
2022-07-27T05:37:33.834Z,21.03
2022-07-27T05:39:38.334Z,20.39
2022-07-27T05:40:37.883Z,20.29
2022-07-27T05:42:41.915Z,20.01
2022-07-27T05:43:41.925Z,19.91
2022-07-27T05:45:46.506Z,19.78
2022-07-27T05:46:45.983Z,19.59
2022-07-27T05:48:50.062Z,19.31
2022-07-27T05:49:50.025Z,19.22
2022-07-27T05:51:54.528Z,18.99
2022-07-27T05:52:54.081Z,19.11
2022-07-27T05:54:58.117Z,19.47
2022-07-27T05:55:59.586Z,19.76
2022-07-27T05:58:02.622Z,20.01
2022-07-27T05:59:06.786Z,19.99
2022-07-27T06:01:06.742Z,20.38
2022-07-27T06:02:06.719Z,20.61
2022-07-27T06:03:06.792Z,20.92
2022-07-27T06:04:06.777Z,21.14
2022-07-27T06:05:09.423Z,21.47
2022-07-27T06:06:06.865Z,21.94
2022-07-27T06:07:06.870Z,22.25
2022-07-27T06:08:06.899Z,22.18
2022-07-27T06:09:06.932Z,22.20
2022-07-27T06:10:06.963Z,22.03
2022-07-27T06:11:06.994Z,21.88
2022-07-27T06:12:07.024Z,21.79
2022-07-27T06:13:07.054Z,21.58
2022-07-27T06:14:07.090Z,21.31
2022-07-27T06:15:07.118Z,21.16
2022-07-27T06:16:07.250Z,21.17
2022-07-27T06:17:07.183Z,21.12
2022-07-27T06:18:07.224Z,21.06
2022-07-27T06:19:07.241Z,21.09
2022-07-27T06:20:07.277Z,20.98
2022-07-27T06:21:07.307Z,21.03
2022-07-27T06:22:07.331Z,21.04
2022-07-27T06:23:07.777Z,21.19
2022-07-27T06:24:07.398Z,21.13
2022-07-27T06:25:07.428Z,21.21
2022-07-27T06:26:07.460Z,21.67
2022-07-27T06:27:07.488Z,22.25
2022-07-27T06:28:07.520Z,22.61
2022-07-27T06:29:10.898Z,23.09
2022-07-27T06:30:07.581Z,23.40
2022-07-27T06:31:07.679Z,23.43
2022-07-27T06:32:07.950Z,23.51
2022-07-27T06:33:07.682Z,23.70
2022-07-27T06:34:11.499Z,23.88
2022-07-27T06:35:07.745Z,23.93
2022-07-27T06:36:07.777Z,24.00
2022-07-27T06:37:07.811Z,23.97
2022-07-27T06:38:07.845Z,23.90
2022-07-27T06:39:07.873Z,23.97
2022-07-27T06:40:07.909Z,23.98
2022-07-27T06:41:07.942Z,23.93
2022-07-27T06:42:07.974Z,23.72
2022-07-27T06:43:08.010Z,23.40
2022-07-27T06:44:08.041Z,23.31
2022-07-27T06:45:08.073Z,22.91
2022-07-27T06:46:08.106Z,22.86
2022-07-27T06:47:08.191Z,22.65
2022-07-27T06:48:08.169Z,22.47
2022-07-27T06:49:08.298Z,22.55
2022-07-27T06:50:08.237Z,22.61
2022-07-27T06:51:08.269Z,22.51
2022-07-27T06:52:08.299Z,22.47
2022-07-27T06:53:08.334Z,22.21
2022-07-27T06:54:08.363Z,22.03
2022-07-27T06:55:08.400Z,22.02
2022-07-27T06:56:08.489Z,21.91
2022-07-27T06:57:08.464Z,21.94
2022-07-27T06:58:08.498Z,21.69
2022-07-27T06:59:08.759Z,21.62
2022-07-27T07:00:08.562Z,21.62
2022-07-27T07:01:08.627Z,21.61
2022-07-27T07:02:08.632Z,21.46
2022-07-27T07:03:08.659Z,21.59
2022-07-27T07:04:08.901Z,21.61
2022-07-27T07:05:08.725Z,21.52
2022-07-27T07:06:08.758Z,21.62
2022-07-27T07:07:08.793Z,21.37
2022-07-27T07:08:08.815Z,21.42
2022-07-27T07:09:09.119Z,21.31
2022-07-27T07:10:08.885Z,21.27
2022-07-27T07:11:08.918Z,20.87
2022-07-27T07:12:08.945Z,20.79
2022-07-27T07:13:08.981Z,20.69
2022-07-27T07:14:09.008Z,20.58
2022-07-27T07:15:09.036Z,20.61
2022-07-27T07:16:09.120Z,20.57
2022-07-27T07:17:09.102Z,20.61
2022-07-27T07:18:09.131Z,20.58
2022-07-27T07:19:09.378Z,20.64
2022-07-27T07:20:09.198Z,20.67
2022-07-27T07:21:09.228Z,20.72
2022-07-27T07:22:09.251Z,20.87
2022-07-27T07:23:09.288Z,21.01
2022-07-27T07:24:09.317Z,21.07
2022-07-27T07:25:09.348Z,21.13
2022-07-27T07:26:09.378Z,21.25
2022-07-27T07:27:09.408Z,21.28
2022-07-27T07:28:09.441Z,21.31
2022-07-27T07:29:09.833Z,21.31
2022-07-27T07:30:09.505Z,21.25
2022-07-27T07:31:09.576Z,21.25
2022-07-27T07:32:09.565Z,21.37
2022-07-27T07:33:09.600Z,21.59
2022-07-27T07:34:09.630Z,21.61
2022-07-27T07:35:09.656Z,21.59
2022-07-27T07:36:13.133Z,21.61
2022-07-27T07:37:09.721Z,21.68
2022-07-27T07:38:09.751Z,21.65
2022-07-27T07:39:10.045Z,21.75
2022-07-27T07:40:39.987Z,21.77
2022-07-27T07:41:09.850Z,21.83
2022-07-27T07:42:11.112Z,21.80
2022-07-27T07:43:09.903Z,21.99
2022-07-27T07:44:09.933Z,21.96
2022-07-27T07:45:09.974Z,22.12
2022-07-27T07:46:10.059Z,22.05
2022-07-27T07:47:10.178Z,22.20
2022-07-27T07:48:10.064Z,22.09
2022-07-27T07:49:10.527Z,21.99
2022-07-27T07:50:10.123Z,22.03
2022-07-27T07:51:10.151Z,22.00
2022-07-27T07:52:10.185Z,21.98
2022-07-27T07:53:10.212Z,22.00
2022-07-27T07:54:10.246Z,21.98
2022-07-27T07:55:10.280Z,21.92
2022-07-27T07:56:10.308Z,21.88
2022-07-27T07:57:10.342Z,21.80
2022-07-27T07:58:10.369Z,21.69
2022-07-27T07:59:10.767Z,21.49
2022-07-27T08:00:10.432Z,21.38
2022-07-27T08:01:10.462Z,21.40
2022-07-27T08:02:10.574Z,21.22
2022-07-27T08:03:10.597Z,21.21
2022-07-27T08:04:10.553Z,21.16
2022-07-27T08:05:10.586Z,20.84
2022-07-27T08:06:10.614Z,20.72
2022-07-27T08:07:10.649Z,20.59
2022-07-27T08:08:10.675Z,20.57
2022-07-27T08:09:11.001Z,20.57
2022-07-27T08:10:10.738Z,20.57
2022-07-27T08:11:10.767Z,20.76
2022-07-27T08:12:10.797Z,20.84
2022-07-27T08:13:10.828Z,20.88
2022-07-27T08:14:10.858Z,21.17
2022-07-27T08:15:10.888Z,21.25
2022-07-27T08:16:10.987Z,21.43
2022-07-27T08:17:10.948Z,21.54
2022-07-27T08:18:10.980Z,21.65
2022-07-27T08:19:11.552Z,21.58
2022-07-27T08:20:11.042Z,21.47
2022-07-27T08:21:11.069Z,21.44
2022-07-27T08:22:11.101Z,21.44
2022-07-27T08:23:11.129Z,21.53
2022-07-27T08:24:11.161Z,21.59
2022-07-27T08:25:11.232Z,21.56
2022-07-27T08:26:11.224Z,21.61
2022-07-27T08:27:11.250Z,21.46
2022-07-27T08:28:11.281Z,21.47
2022-07-27T08:29:14.315Z,21.42
2022-07-27T08:30:11.720Z,21.52
2022-07-27T08:31:14.608Z,21.52
2022-07-27T08:32:11.490Z,21.42
2022-07-27T08:33:11.435Z,21.44
2022-07-27T08:34:11.463Z,21.58
2022-07-27T08:35:11.496Z,21.67
2022-07-27T08:36:11.523Z,21.75
2022-07-27T08:37:15.339Z,21.83
2022-07-27T08:38:11.584Z,22.00
2022-07-27T08:39:25.165Z,22.21
2022-07-27T08:41:11.675Z,22.45
2022-07-27T08:42:11.706Z,22.49
2022-07-27T08:43:11.734Z,22.22
2022-07-27T08:44:11.766Z,22.14
2022-07-27T08:45:11.799Z,21.98
2022-07-27T08:46:11.934Z,21.99
2022-07-27T08:47:11.860Z,22.00
2022-07-27T08:48:11.891Z,21.88
2022-07-27T08:49:12.359Z,21.83
2022-07-27T08:50:11.976Z,21.84
2022-07-27T08:51:11.983Z,21.67
2022-07-27T08:52:12.017Z,21.58
2022-07-27T08:53:12.045Z,21.34
2022-07-27T08:54:12.076Z,21.34
2022-07-27T08:55:12.109Z,21.19
2022-07-27T08:56:12.140Z,21.19
2022-07-27T08:57:12.166Z,21.01
2022-07-27T08:58:12.198Z,21.19
2022-07-27T08:59:12.482Z,21.24
2022-07-27T09:00:12.260Z,21.27
2022-07-27T09:01:12.284Z,21.42
2022-07-27T09:02:12.420Z,21.58
2022-07-27T09:03:18.604Z,21.72
2022-07-27T09:04:12.379Z,21.88
2022-07-27T09:05:12.412Z,22.00
2022-07-27T09:06:12.442Z,22.14
2022-07-27T09:07:12.469Z,22.12
2022-07-27T09:08:12.504Z,21.90
2022-07-27T09:09:12.776Z,21.92
2022-07-27T09:10:12.563Z,21.91
2022-07-27T09:11:12.598Z,22.00
2022-07-27T09:12:12.620Z,21.90
2022-07-27T09:13:12.651Z,22.05
2022-07-27T09:14:12.694Z,21.99
2022-07-27T09:15:12.717Z,22.05
2022-07-27T09:16:20.779Z,22.17
2022-07-27T09:17:47.173Z,22.30
2022-07-27T09:18:12.828Z,22.42
2022-07-27T09:19:13.166Z,22.45
2022-07-27T09:20:17.698Z,22.52
2022-07-27T09:21:12.895Z,22.61
2022-07-27T09:22:12.929Z,22.52
2022-07-27T09:23:12.957Z,22.40
2022-07-27T09:24:36.805Z,22.35
2022-07-27T09:25:13.023Z,22.28
2022-07-27T09:26:29.541Z,22.20
2022-07-27T09:27:13.081Z,22.09
2022-07-27T09:28:13.112Z,21.91
2022-07-27T09:29:13.723Z,21.79
2022-07-27T09:30:13.178Z,21.67
2022-07-27T09:31:13.238Z,21.65
2022-07-27T09:32:13.237Z,21.53
2022-07-27T09:33:13.264Z,21.54
2022-07-27T09:34:13.296Z,21.54
2022-07-27T09:35:13.324Z,21.43
2022-07-27T09:36:13.356Z,21.24
2022-07-27T09:37:13.388Z,21.21
2022-07-27T09:38:13.413Z,20.99
2022-07-27T09:39:13.574Z,21.01
2022-07-27T09:40:13.475Z,20.92
2022-07-27T09:41:13.558Z,21.06
2022-07-27T09:42:42.269Z,21.19
2022-07-27T09:44:12.440Z,21.24
2022-07-27T09:44:31.854Z,21.53
2022-07-27T09:45:13.628Z,21.64
2022-07-27T09:46:13.720Z,21.65
2022-07-27T09:47:13.684Z,22.03
2022-07-27T09:48:13.718Z,22.20
2022-07-27T09:49:13.806Z,22.46
2022-07-27T09:50:13.853Z,22.61
2022-07-27T09:51:57.703Z,22.94
2022-07-27T09:52:13.841Z,23.09
2022-07-27T09:53:41.520Z,23.25
2022-07-27T09:54:14.299Z,23.12
2022-07-27T09:55:13.933Z,23.28
2022-07-27T09:56:13.965Z,23.19
2022-07-27T09:57:14.000Z,23.28
2022-07-27T09:58:15.498Z,23.28
2022-07-27T09:59:14.057Z,23.23
2022-07-27T10:00:14.312Z,23.23
2022-07-27T10:01:14.175Z,23.04
2022-07-27T10:02:14.333Z,22.97
2022-07-27T10:03:14.183Z,22.79
2022-07-27T10:04:14.587Z,22.64
2022-07-27T10:05:14.324Z,22.40
2022-07-27T10:06:14.277Z,22.22
2022-07-27T10:07:14.310Z,22.21
2022-07-27T10:08:14.338Z,22.05
2022-07-27T10:09:14.373Z,21.92
2022-07-27T10:10:14.531Z,21.83
2022-07-27T10:11:14.433Z,21.91
2022-07-27T10:12:14.463Z,21.90
2022-07-27T10:13:14.493Z,21.80
2022-07-27T10:14:15.063Z,21.79
2022-07-27T10:15:14.576Z,21.74
2022-07-27T10:16:14.657Z,21.88
2022-07-27T10:17:14.616Z,22.00
2022-07-27T10:18:14.648Z,22.17
2022-07-27T10:19:14.680Z,22.15
2022-07-27T10:20:14.761Z,22.25
2022-07-27T10:21:14.735Z,22.27
2022-07-27T10:22:14.773Z,22.47
2022-07-27T10:23:14.799Z,22.52
2022-07-27T10:24:15.317Z,22.57
2022-07-27T10:25:14.861Z,22.55
2022-07-27T10:26:14.895Z,22.77
2022-07-27T10:27:14.927Z,22.97
2022-07-27T10:28:14.955Z,22.88
2022-07-27T10:29:14.987Z,22.91
2022-07-27T10:30:15.019Z,22.65
2022-07-27T10:31:15.087Z,22.77
2022-07-27T10:32:15.082Z,22.65
2022-07-27T10:33:15.112Z,22.67
2022-07-27T10:34:15.660Z,22.68
2022-07-27T10:35:15.176Z,22.68
2022-07-27T10:36:16.973Z,22.86
2022-07-27T10:37:15.236Z,22.92
2022-07-27T10:38:15.275Z,22.91
2022-07-27T10:39:15.301Z,22.88
2022-07-27T10:40:15.333Z,22.98
2022-07-27T10:41:15.363Z,22.92
2022-07-27T10:42:15.393Z,22.91
2022-07-27T10:43:15.427Z,22.90
2022-07-27T10:44:15.828Z,22.80
2022-07-27T10:45:15.492Z,22.82
2022-07-27T10:46:15.574Z,22.57
2022-07-27T10:47:15.549Z,22.52
2022-07-27T10:48:15.582Z,22.55
2022-07-27T10:49:15.673Z,22.49
2022-07-27T10:50:15.645Z,22.60
2022-07-27T10:51:15.683Z,22.67
2022-07-27T10:52:15.709Z,22.64
2022-07-27T10:53:15.737Z,22.72
2022-07-27T10:54:15.781Z,22.70
2022-07-27T10:55:15.802Z,22.76
2022-07-27T10:56:15.832Z,22.90
2022-07-27T10:57:15.865Z,23.01
2022-07-27T10:58:15.895Z,23.27
2022-07-27T10:59:15.926Z,23.35
2022-07-27T11:00:19.712Z,23.50
2022-07-27T11:01:16.080Z,23.54
2022-07-27T11:02:16.020Z,23.60
2022-07-27T11:03:16.054Z,23.47
2022-07-27T11:04:16.593Z,23.39
2022-07-27T11:05:57.942Z,23.38
2022-07-27T11:06:32.445Z,23.39
2022-07-27T11:07:25.658Z,23.57
2022-07-27T11:10:16.276Z,23.58
2022-07-27T11:11:16.378Z,23.63
2022-07-27T11:12:16.339Z,23.70
2022-07-27T11:13:16.370Z,23.87
2022-07-27T11:14:19.015Z,23.76
2022-07-27T11:15:16.435Z,23.70
2022-07-27T11:16:23.773Z,23.55
2022-07-27T11:17:48.654Z,23.51
2022-07-27T11:18:16.570Z,23.57
2022-07-27T11:19:17.144Z,23.46
2022-07-27T11:20:16.611Z,23.43
2022-07-27T11:21:21.927Z,23.28
2022-07-27T11:22:28.565Z,23.17
2022-07-27T11:24:16.951Z,23.10
2022-07-27T11:25:16.756Z,23.16
2022-07-27T11:26:16.855Z,23.32
2022-07-27T11:27:19.950Z,23.35
2022-07-27T11:28:16.852Z,23.40
2022-07-27T11:29:16.883Z,23.48
2022-07-27T11:30:16.918Z,23.36
2022-07-27T11:31:32.464Z,23.36
2022-07-27T11:32:16.982Z,23.40
2022-07-27T11:33:17.012Z,23.43
2022-07-27T11:34:17.045Z,23.43
2022-07-27T11:35:19.949Z,23.38
2022-07-27T11:36:17.108Z,23.38
2022-07-27T11:37:17.143Z,23.48
2022-07-27T11:38:17.173Z,23.57
2022-07-27T11:39:25.252Z,23.55
2022-07-27T11:40:48.184Z,23.40
2022-07-27T11:41:28.369Z,23.33
2022-07-27T11:42:21.271Z,23.22
2022-07-27T11:43:17.329Z,23.10
2022-07-27T11:44:17.362Z,23.05
2022-07-27T11:45:17.394Z,23.05
2022-07-27T11:46:17.591Z,22.90
2022-07-27T11:47:17.455Z,22.95
2022-07-27T11:48:17.487Z,22.94
2022-07-27T11:49:17.778Z,22.79
2022-07-27T11:50:17.551Z,22.64
2022-07-27T11:51:17.595Z,22.67
2022-07-27T11:52:17.722Z,22.68
2022-07-27T11:53:17.645Z,22.64
2022-07-27T11:54:17.682Z,22.67
2022-07-27T11:55:17.708Z,22.64
2022-07-27T11:56:17.738Z,22.67
2022-07-27T11:57:17.769Z,22.68
2022-07-27T11:58:17.804Z,22.58
2022-07-27T11:59:18.094Z,22.64
2022-07-27T12:00:17.864Z,22.70
2022-07-27T12:01:17.889Z,22.58
2022-07-27T12:02:18.303Z,22.58
2022-07-27T12:03:17.953Z,22.60
2022-07-27T12:04:17.987Z,22.52
2022-07-27T12:05:18.099Z,22.67
2022-07-27T12:06:18.046Z,22.75
2022-07-27T12:07:18.076Z,22.75
2022-07-27T12:08:18.111Z,22.80
2022-07-27T12:09:18.140Z,22.82
2022-07-27T12:10:18.171Z,22.83
2022-07-27T12:11:18.200Z,22.64
2022-07-27T12:12:18.232Z,22.58
2022-07-27T12:13:18.262Z,22.70
2022-07-27T12:14:18.291Z,22.67
2022-07-27T12:15:45.281Z,22.67
2022-07-27T12:18:27.050Z,22.85
2022-07-27T12:19:26.565Z,22.83
2022-07-27T12:21:31.730Z,22.75
2022-07-27T12:22:30.625Z,22.83
2022-07-27T12:24:35.122Z,23.01
2022-07-27T12:25:34.687Z,23.05
2022-07-27T12:27:38.723Z,23.01
2022-07-27T12:28:38.736Z,23.16
2022-07-27T12:30:43.261Z,23.25
2022-07-27T12:31:42.795Z,23.28
2022-07-27T12:33:48.348Z,23.15
2022-07-27T12:34:46.854Z,23.38
2022-07-27T12:36:39.800Z,23.27
2022-07-27T12:37:39.824Z,23.39
2022-07-27T12:39:44.321Z,23.60
2022-07-27T12:40:43.884Z,23.69
2022-07-27T12:42:47.913Z,23.55
2022-07-27T12:43:47.933Z,23.57
2022-07-27T12:45:52.460Z,23.75
2022-07-27T12:46:52.010Z,23.80
2022-07-27T12:48:56.073Z,23.93
2022-07-27T12:49:56.068Z,23.87
2022-07-27T12:52:00.565Z,23.90
2022-07-27T12:53:00.120Z,23.97
2022-07-27T12:55:04.158Z,23.79
2022-07-27T12:56:04.186Z,23.68
2022-07-27T12:58:08.684Z,23.43
2022-07-27T12:59:08.256Z,23.40
2022-07-27T13:01:01.449Z,23.31
2022-07-27T13:02:01.540Z,23.20
2022-07-27T13:04:06.426Z,23.20
2022-07-27T13:05:05.975Z,23.38
2022-07-27T13:06:12.662Z,23.40
2022-07-27T13:07:06.020Z,23.58
2022-07-27T13:08:06.054Z,23.57
2022-07-27T13:09:06.091Z,23.61
2022-07-27T13:10:06.189Z,23.68
2022-07-27T13:11:06.146Z,23.54
2022-07-27T13:12:06.175Z,23.48
2022-07-27T13:13:06.206Z,23.38
2022-07-27T13:14:06.242Z,23.32
2022-07-27T13:15:06.268Z,23.22
2022-07-27T13:16:06.323Z,23.12
2022-07-27T13:17:06.370Z,23.12
2022-07-27T13:18:06.359Z,23.19
2022-07-27T13:19:06.391Z,23.25
2022-07-27T13:20:06.423Z,23.23
2022-07-27T13:21:06.455Z,23.36
2022-07-27T13:22:06.483Z,23.28
2022-07-27T13:23:06.512Z,23.17
2022-07-27T13:24:06.545Z,23.25
2022-07-27T13:25:15.946Z,23.16
2022-07-27T13:26:06.609Z,23.10
2022-07-27T13:27:06.675Z,23.05
2022-07-27T13:28:06.670Z,23.07
2022-07-27T13:29:06.700Z,23.00
2022-07-27T13:30:06.725Z,23.10
2022-07-27T13:31:06.757Z,23.16
2022-07-27T13:32:06.842Z,23.19
2022-07-27T13:33:06.819Z,23.27
2022-07-27T13:34:06.846Z,23.31
2022-07-27T13:35:06.879Z,23.27
2022-07-27T13:36:06.909Z,23.42
2022-07-27T13:37:06.954Z,23.47